createdAt,value
2023-04-28T00:00:10.903Z,0.00
2023-04-28T00:01:10.831Z,0.00
2023-04-28T00:02:10.910Z,0.00
2023-04-28T00:03:10.998Z,0.00
2023-04-28T00:04:10.997Z,0.00
2023-04-28T00:05:10.882Z,0.00
2023-04-28T00:06:10.820Z,0.00
2023-04-28T00:07:10.785Z,0.00
2023-04-28T00:08:10.820Z,0.00
2023-04-28T00:09:10.778Z,0.00
2023-04-28T00:10:10.825Z,0.00
2023-04-28T00:11:10.824Z,0.00
2023-04-28T00:12:10.733Z,0.00
2023-04-28T00:13:10.723Z,0.00
2023-04-28T00:14:10.797Z,0.00
2023-04-28T00:15:10.723Z,0.00
2023-04-28T00:16:10.800Z,0.00
2023-04-28T00:17:10.712Z,0.00
2023-04-28T00:18:10.683Z,0.00
2023-04-28T00:19:10.647Z,0.00
2023-04-28T00:20:10.649Z,0.00
2023-04-28T00:21:10.650Z,0.00
2023-04-28T00:22:10.643Z,0.00
2023-04-28T00:23:10.630Z,0.00
2023-04-28T00:24:10.644Z,0.00
2023-04-28T00:25:10.634Z,0.00
2023-04-28T00:26:10.611Z,0.00
2023-04-28T00:27:10.585Z,0.00
2023-04-28T00:28:11.651Z,0.00
2023-04-28T00:29:10.552Z,0.00
2023-04-28T00:30:10.848Z,0.00
2023-04-28T00:31:10.538Z,0.00
2023-04-28T00:32:10.587Z,0.00
2023-04-28T00:33:10.517Z,0.00
2023-04-28T00:34:10.509Z,0.00
2023-04-28T00:35:10.590Z,0.00
2023-04-28T00:36:10.509Z,0.00
2023-04-28T00:37:10.474Z,0.00
2023-04-28T00:38:10.482Z,0.00
2023-04-28T00:39:10.477Z,0.00
2023-04-28T00:40:10.444Z,0.00
2023-04-28T00:41:10.438Z,0.00
2023-04-28T00:42:10.430Z,0.00
2023-04-28T00:43:10.424Z,0.00
2023-04-28T00:44:10.446Z,0.00
2023-04-28T00:45:10.400Z,0.00
2023-04-28T00:46:10.492Z,0.00
2023-04-28T00:47:10.367Z,0.00
2023-04-28T00:48:10.379Z,0.00
2023-04-28T00:49:10.344Z,0.00
2023-04-28T00:50:10.407Z,0.00
2023-04-28T00:51:10.331Z,0.00
2023-04-28T00:52:10.370Z,0.00
2023-04-28T00:53:10.303Z,0.00
2023-04-28T00:54:10.300Z,0.00
2023-04-28T00:55:10.311Z,0.00
2023-04-28T00:56:10.272Z,0.00
2023-04-28T00:57:10.262Z,0.00
2023-04-28T00:58:16.261Z,0.00
2023-04-28T00:59:10.238Z,0.00
2023-04-28T01:00:10.253Z,0.00
2023-04-28T01:01:10.277Z,0.00
2023-04-28T01:02:10.250Z,0.00
2023-04-28T01:03:10.295Z,0.00
2023-04-28T01:04:10.448Z,0.00
2023-04-28T01:05:10.205Z,0.00
2023-04-28T01:06:10.175Z,0.00
2023-04-28T01:07:10.163Z,0.00
2023-04-28T01:08:10.155Z,0.00
2023-04-28T01:09:10.149Z,0.00
2023-04-28T01:10:10.165Z,0.00
2023-04-28T01:11:10.133Z,0.00
2023-04-28T01:12:10.114Z,0.00
2023-04-28T01:13:10.090Z,0.00
2023-04-28T01:14:10.094Z,0.00
2023-04-28T01:15:10.091Z,0.00
2023-04-28T01:16:10.109Z,0.00
2023-04-28T01:17:10.052Z,0.00
2023-04-28T01:18:10.201Z,0.00
2023-04-28T01:19:10.036Z,0.00
2023-04-28T01:20:10.047Z,0.00
2023-04-28T01:21:10.027Z,0.00
2023-04-28T01:22:10.011Z,0.00
2023-04-28T01:23:09.991Z,0.00
2023-04-28T01:24:09.998Z,0.00
2023-04-28T01:25:09.988Z,0.00
2023-04-28T01:26:09.967Z,0.00
2023-04-28T01:27:09.960Z,0.00
2023-04-28T01:28:09.953Z,0.00
2023-04-28T01:29:09.932Z,0.00
2023-04-28T01:30:09.930Z,0.00
2023-04-28T01:31:09.915Z,0.00
2023-04-28T01:32:09.905Z,0.00
2023-04-28T01:33:09.960Z,0.00
2023-04-28T01:34:09.880Z,0.00
2023-04-28T01:35:09.878Z,0.00
2023-04-28T01:36:09.854Z,0.00
2023-04-28T01:37:09.854Z,0.00
2023-04-28T01:38:09.840Z,0.00
2023-04-28T01:39:09.838Z,0.00
2023-04-28T01:40:09.845Z,0.00
2023-04-28T01:41:09.808Z,0.00
2023-04-28T01:42:09.814Z,0.00
2023-04-28T01:43:09.776Z,0.00
2023-04-28T01:44:09.762Z,0.00
2023-04-28T01:45:09.785Z,0.00
2023-04-28T01:46:09.774Z,0.00
2023-04-28T01:47:09.748Z,0.00
2023-04-28T01:48:09.786Z,0.00
2023-04-28T01:49:09.728Z,0.00
2023-04-28T01:50:09.727Z,0.00
2023-04-28T01:51:09.704Z,0.00
2023-04-28T01:52:09.686Z,0.00
2023-04-28T01:53:09.694Z,0.00
2023-04-28T01:54:09.696Z,0.00
2023-04-28T01:55:09.690Z,0.00
2023-04-28T01:56:09.661Z,0.00
2023-04-28T01:57:09.672Z,0.00
2023-04-28T01:58:09.623Z,0.00
2023-04-28T01:59:09.619Z,0.00
2023-04-28T02:00:09.597Z,0.00
2023-04-28T02:01:09.647Z,0.00
2023-04-28T02:02:09.592Z,0.00
2023-04-28T02:03:09.721Z,0.00
2023-04-28T02:04:09.711Z,0.00
2023-04-28T02:05:09.662Z,0.00
2023-04-28T02:06:09.549Z,0.00
2023-04-28T02:07:09.526Z,0.00
2023-04-28T02:08:09.507Z,0.00
2023-04-28T02:09:09.527Z,0.00
2023-04-28T02:10:09.521Z,0.00
2023-04-28T02:11:09.496Z,0.00
2023-04-28T02:12:09.500Z,0.00
2023-04-28T02:13:09.464Z,0.00
2023-04-28T02:14:09.456Z,0.00
2023-04-28T02:15:09.469Z,0.00
2023-04-28T02:16:09.478Z,0.00
2023-04-28T02:17:09.435Z,0.00
2023-04-28T02:18:09.411Z,0.00
2023-04-28T02:19:09.415Z,0.00
2023-04-28T02:20:09.417Z,0.00
2023-04-28T02:21:09.389Z,0.00
2023-04-28T02:22:09.380Z,0.00
2023-04-28T02:23:09.360Z,0.00
2023-04-28T02:24:09.339Z,0.00
2023-04-28T02:25:09.397Z,0.00
2023-04-28T02:26:09.331Z,0.00
2023-04-28T02:27:09.312Z,0.00
2023-04-28T02:28:09.322Z,0.00
2023-04-28T02:29:09.308Z,0.00
2023-04-28T02:30:09.321Z,0.00
2023-04-28T02:31:09.309Z,0.00
2023-04-28T02:32:09.274Z,0.00
2023-04-28T02:33:09.308Z,0.00
2023-04-28T02:34:09.263Z,0.00
2023-04-28T02:35:09.259Z,0.00
2023-04-28T02:36:09.233Z,0.00
2023-04-28T02:37:09.241Z,0.00
2023-04-28T02:38:09.202Z,0.00
2023-04-28T02:39:09.200Z,0.00
2023-04-28T02:40:09.197Z,0.00
2023-04-28T02:41:09.413Z,0.00
2023-04-28T02:42:09.164Z,0.00
2023-04-28T02:43:09.153Z,0.00
2023-04-28T02:44:09.144Z,0.00
2023-04-28T02:45:09.153Z,0.00
2023-04-28T02:46:09.148Z,0.00
2023-04-28T02:47:09.263Z,0.00
2023-04-28T02:48:09.125Z,0.00
2023-04-28T02:49:09.095Z,0.00
2023-04-28T02:50:09.104Z,0.00
2023-04-28T02:51:09.076Z,0.00
2023-04-28T02:52:09.070Z,0.00
2023-04-28T02:53:09.042Z,0.00
2023-04-28T02:54:09.037Z,0.00
2023-04-28T02:55:09.036Z,0.00
2023-04-28T02:56:09.025Z,0.00
2023-04-28T02:57:09.022Z,0.00
2023-04-28T02:58:09.019Z,0.00
2023-04-28T02:59:09.030Z,0.00
2023-04-28T03:00:08.995Z,0.00
2023-04-28T03:01:09.020Z,0.00
2023-04-28T03:02:08.962Z,0.00
2023-04-28T03:03:09.079Z,0.00
2023-04-28T03:04:09.040Z,0.00
2023-04-28T03:05:08.958Z,0.00
2023-04-28T03:06:08.918Z,0.00
2023-04-28T03:07:08.914Z,0.00
2023-04-28T03:08:08.923Z,0.00
2023-04-28T03:09:08.893Z,0.00
2023-04-28T03:10:08.883Z,0.00
2023-04-28T03:11:08.884Z,0.00
2023-04-28T03:12:08.855Z,0.00
2023-04-28T03:13:08.890Z,0.00
2023-04-28T03:14:08.829Z,0.00
2023-04-28T03:15:08.850Z,0.00
2023-04-28T03:16:08.836Z,0.00
2023-04-28T03:17:08.815Z,0.00
2023-04-28T03:18:08.836Z,0.00
2023-04-28T03:19:08.790Z,0.00
2023-04-28T03:20:08.799Z,0.00
2023-04-28T03:21:08.775Z,0.00
2023-04-28T03:22:08.754Z,0.00
2023-04-28T03:23:08.754Z,0.00
2023-04-28T03:24:08.741Z,0.00
2023-04-28T03:25:08.744Z,0.00
2023-04-28T03:26:08.718Z,0.00
2023-04-28T03:27:08.699Z,0.00
2023-04-28T03:28:08.691Z,0.00
2023-04-28T03:29:08.671Z,0.00
2023-04-28T03:30:08.712Z,0.00
2023-04-28T03:31:08.659Z,0.00
2023-04-28T03:32:08.680Z,0.00
2023-04-28T03:33:08.660Z,0.00
2023-04-28T03:34:08.614Z,0.00
2023-04-28T03:35:08.639Z,0.00
2023-04-28T03:36:08.603Z,0.00
2023-04-28T03:37:08.611Z,0.00
2023-04-28T03:38:08.625Z,0.00
2023-04-28T03:39:08.577Z,0.00
2023-04-28T03:40:08.582Z,0.00
2023-04-28T03:41:08.574Z,0.00
2023-04-28T03:42:08.545Z,0.00
2023-04-28T03:43:08.552Z,0.00
2023-04-28T03:44:08.512Z,0.00
2023-04-28T03:45:08.542Z,0.00
2023-04-28T03:46:08.524Z,0.00
2023-04-28T03:47:08.493Z,0.00
2023-04-28T03:48:08.513Z,0.00
2023-04-28T03:49:08.434Z,0.00
2023-04-28T03:50:08.411Z,0.00
2023-04-28T03:51:08.398Z,0.00
2023-04-28T03:52:08.398Z,0.00
2023-04-28T03:53:08.385Z,0.00
2023-04-28T03:54:08.365Z,0.00
2023-04-28T03:55:08.380Z,0.00
2023-04-28T03:56:08.349Z,0.00
2023-04-28T03:57:08.343Z,0.00
2023-04-28T03:58:08.327Z,0.00
2023-04-28T03:59:08.318Z,0.00
2023-04-28T04:00:08.319Z,0.00
2023-04-28T04:01:08.288Z,0.00
2023-04-28T04:02:08.300Z,0.00
2023-04-28T04:03:08.428Z,0.00
2023-04-28T04:04:08.404Z,0.00
2023-04-28T04:05:08.457Z,0.00
2023-04-28T04:06:08.248Z,0.00
2023-04-28T04:07:08.245Z,0.00
2023-04-28T04:08:08.220Z,0.00
2023-04-28T04:09:08.240Z,0.00
2023-04-28T04:10:08.229Z,0.00
2023-04-28T04:11:08.193Z,0.00
2023-04-28T04:12:08.184Z,0.00
2023-04-28T04:13:08.181Z,0.00
2023-04-28T04:14:08.162Z,0.00
2023-04-28T04:15:08.165Z,0.00
2023-04-28T04:16:08.195Z,0.00
2023-04-28T04:17:08.132Z,0.00
2023-04-28T04:18:08.208Z,0.00
2023-04-28T04:19:08.135Z,0.00
2023-04-28T04:20:08.127Z,0.00
2023-04-28T04:21:08.079Z,0.00
2023-04-28T04:22:08.100Z,0.00
2023-04-28T04:23:08.061Z,0.00
2023-04-28T04:24:08.073Z,0.00
2023-04-28T04:25:08.189Z,0.00
2023-04-28T04:26:08.040Z,0.00
2023-04-28T04:27:08.045Z,0.00
2023-04-28T04:28:08.025Z,0.00
2023-04-28T04:29:07.998Z,0.00
2023-04-28T04:30:07.996Z,0.00
2023-04-28T04:31:08.028Z,0.00
2023-04-28T04:32:07.967Z,0.00
2023-04-28T04:33:08.012Z,0.00
2023-04-28T04:34:07.949Z,0.00
2023-04-28T04:35:07.984Z,0.00
2023-04-28T04:36:07.951Z,0.00
2023-04-28T04:37:07.924Z,0.00
2023-04-28T04:38:07.922Z,0.00
2023-04-28T04:39:07.900Z,0.00
2023-04-28T04:40:07.940Z,0.00
2023-04-28T04:41:07.885Z,0.00
2023-04-28T04:42:23.330Z,0.00
2023-04-28T04:43:07.874Z,0.00
2023-04-28T04:44:07.859Z,0.00
2023-04-28T04:45:07.871Z,0.00
2023-04-28T04:46:07.869Z,0.00
2023-04-28T04:47:07.808Z,0.00
2023-04-28T04:48:07.834Z,0.00
2023-04-28T04:49:07.796Z,0.00
2023-04-28T04:50:07.862Z,0.00
2023-04-28T04:51:07.869Z,0.00
2023-04-28T04:52:07.772Z,0.00
2023-04-28T04:53:09.990Z,0.00
2023-04-28T04:54:07.758Z,0.00
2023-04-28T04:55:07.765Z,0.00
2023-04-28T04:56:07.738Z,0.00
2023-04-28T04:57:07.747Z,0.00
2023-04-28T04:58:07.704Z,0.00
2023-04-28T04:59:07.704Z,0.00
2023-04-28T05:00:07.706Z,0.00
2023-04-28T05:01:07.683Z,0.00
2023-04-28T05:02:07.750Z,0.00
2023-04-28T05:03:07.836Z,0.00
2023-04-28T05:04:08.080Z,0.00
2023-04-28T05:05:19.807Z,0.00
2023-04-28T05:06:07.629Z,0.00
2023-04-28T05:07:07.619Z,0.00
2023-04-28T05:08:07.641Z,0.00
2023-04-28T05:09:07.582Z,0.00
2023-04-28T05:10:07.610Z,0.00
2023-04-28T05:11:07.566Z,0.00
2023-04-28T05:12:07.572Z,0.00
2023-04-28T05:13:07.557Z,0.00
2023-04-28T05:14:07.543Z,0.00
2023-04-28T05:15:07.551Z,0.00
2023-04-28T05:16:07.550Z,0.00
2023-04-28T05:17:07.512Z,0.00
2023-04-28T05:18:07.514Z,0.00
2023-04-28T05:19:07.501Z,0.00
2023-04-28T05:20:07.485Z,0.00
2023-04-28T05:21:07.554Z,0.00
2023-04-28T05:22:07.463Z,0.00
2023-04-28T05:23:07.447Z,0.00
2023-04-28T05:24:07.427Z,0.00
2023-04-28T05:25:07.498Z,5.62
2023-04-28T05:26:07.495Z,5.62
2023-04-28T05:27:07.429Z,5.62
2023-04-28T05:28:07.537Z,5.62
2023-04-28T05:29:07.438Z,5.62
2023-04-28T05:30:07.418Z,0.00
2023-04-28T05:31:07.413Z,0.00
2023-04-28T05:32:07.376Z,0.00
2023-04-28T05:33:07.385Z,0.00
2023-04-28T05:34:07.383Z,0.00
2023-04-28T05:35:07.345Z,0.00
2023-04-28T05:36:07.317Z,0.00
2023-04-28T05:37:07.330Z,0.00
2023-04-28T05:38:07.298Z,0.00
2023-04-28T05:39:07.297Z,0.00
2023-04-28T05:40:07.290Z,0.00
2023-04-28T05:41:07.275Z,0.00
2023-04-28T05:42:07.256Z,0.00
2023-04-28T05:43:07.246Z,0.00
2023-04-28T05:44:07.218Z,0.00
2023-04-28T05:45:07.241Z,0.00
2023-04-28T05:46:14.890Z,0.00
2023-04-28T05:47:07.194Z,0.00
2023-04-28T05:48:07.223Z,0.00
2023-04-28T05:49:07.191Z,5.62
2023-04-28T05:50:07.169Z,5.62
2023-04-28T05:51:07.164Z,5.62
2023-04-28T05:52:07.143Z,5.62
2023-04-28T05:53:07.139Z,5.62
2023-04-28T05:54:07.132Z,5.62
2023-04-28T05:55:07.145Z,5.62
2023-04-28T05:56:07.130Z,5.62
2023-04-28T05:57:07.100Z,5.62
2023-04-28T05:58:07.095Z,5.62
2023-04-28T05:59:07.084Z,5.62
2023-04-28T06:00:07.096Z,5.62
2023-04-28T06:01:07.042Z,5.62
2023-04-28T06:02:07.089Z,5.62
2023-04-28T06:03:07.251Z,5.62
2023-04-28T06:04:07.152Z,5.62
2023-04-28T06:05:07.114Z,5.62
2023-04-28T06:06:09.959Z,5.62
2023-04-28T06:07:06.995Z,5.62
2023-04-28T06:08:06.988Z,5.62
2023-04-28T06:09:06.971Z,5.62
2023-04-28T06:10:07.009Z,5.62
2023-04-28T06:11:06.945Z,11.25
2023-04-28T06:12:06.933Z,11.25
2023-04-28T06:13:06.954Z,11.25
2023-04-28T06:14:06.939Z,11.25
2023-04-28T06:15:06.903Z,11.25
2023-04-28T06:16:06.941Z,11.25
2023-04-28T06:17:06.887Z,11.25
2023-04-28T06:18:06.922Z,16.88
2023-04-28T06:19:06.942Z,16.88
2023-04-28T06:20:06.855Z,11.25
2023-04-28T06:21:06.855Z,11.25
2023-04-28T06:22:06.865Z,11.25
2023-04-28T06:23:06.861Z,11.25
2023-04-28T06:24:06.813Z,11.25
2023-04-28T06:25:06.817Z,11.25
2023-04-28T06:26:06.824Z,11.25
2023-04-28T06:27:06.776Z,11.25
2023-04-28T06:28:06.767Z,11.25
2023-04-28T06:29:06.771Z,16.88
2023-04-28T06:30:06.766Z,16.88
2023-04-28T06:31:06.804Z,11.25
2023-04-28T06:32:06.722Z,11.25
2023-04-28T06:33:06.754Z,11.25
2023-04-28T06:34:06.724Z,16.88
2023-04-28T06:35:06.692Z,16.88
2023-04-28T06:36:06.698Z,16.88
2023-04-28T06:37:06.683Z,16.88
2023-04-28T06:38:06.671Z,16.88
2023-04-28T06:39:06.656Z,16.88
2023-04-28T06:40:06.692Z,16.88
2023-04-28T06:41:06.659Z,22.50
2023-04-28T06:42:06.622Z,16.88
2023-04-28T06:43:06.619Z,16.88
2023-04-28T06:44:06.633Z,16.88
2023-04-28T06:45:06.606Z,16.88
2023-04-28T06:46:06.622Z,16.88
2023-04-28T06:47:06.646Z,11.25
2023-04-28T06:48:06.633Z,11.25
2023-04-28T06:49:06.575Z,11.25
2023-04-28T06:50:06.553Z,16.88
2023-04-28T06:51:06.550Z,16.88
2023-04-28T06:52:06.522Z,16.88
2023-04-28T06:53:06.517Z,16.88
2023-04-28T06:54:06.498Z,16.88
2023-04-28T06:55:06.486Z,16.88
2023-04-28T06:56:07.072Z,16.88
2023-04-28T06:57:06.468Z,22.50
2023-04-28T06:58:06.474Z,16.88
2023-04-28T06:59:12.455Z,22.50
2023-04-28T07:00:06.547Z,22.50
2023-04-28T07:01:06.465Z,22.50
2023-04-28T07:02:06.491Z,22.50
2023-04-28T07:03:06.541Z,28.12
2023-04-28T07:04:06.610Z,28.12
2023-04-28T07:05:06.389Z,28.12
2023-04-28T07:06:06.407Z,28.12
2023-04-28T07:07:06.367Z,22.50
2023-04-28T07:08:06.371Z,22.50
2023-04-28T07:09:06.388Z,22.50
2023-04-28T07:10:06.360Z,22.50
2023-04-28T07:11:06.361Z,22.50
2023-04-28T07:12:06.305Z,22.50
2023-04-28T07:13:06.301Z,22.50
2023-04-28T07:14:06.301Z,22.50
2023-04-28T07:15:06.532Z,22.50
2023-04-28T07:16:06.315Z,22.50
2023-04-28T07:17:06.262Z,28.12
2023-04-28T07:18:06.275Z,28.12
2023-04-28T07:19:06.263Z,28.12
2023-04-28T07:20:06.238Z,28.12
2023-04-28T07:21:06.297Z,28.12
2023-04-28T07:22:06.248Z,28.12
2023-04-28T07:23:06.278Z,28.12
2023-04-28T07:24:06.205Z,28.12
2023-04-28T07:25:06.204Z,22.50
2023-04-28T07:26:06.189Z,22.50
2023-04-28T07:27:06.254Z,22.50
2023-04-28T07:28:06.156Z,22.50
2023-04-28T07:29:06.135Z,22.50
2023-04-28T07:30:18.528Z,22.50
2023-04-28T07:31:06.134Z,22.50
2023-04-28T07:32:07.607Z,16.88
2023-04-28T07:33:06.193Z,16.88
2023-04-28T07:34:06.080Z,16.88
2023-04-28T07:35:06.071Z,16.88
2023-04-28T07:36:06.079Z,16.88
2023-04-28T07:37:06.069Z,22.50
2023-04-28T07:38:06.042Z,22.50
2023-04-28T07:39:06.025Z,22.50
2023-04-28T07:40:06.036Z,16.88
2023-04-28T07:41:07.648Z,16.88
2023-04-28T07:42:06.018Z,16.88
2023-04-28T07:43:06.012Z,22.50
2023-04-28T07:44:05.990Z,22.50
2023-04-28T07:45:05.986Z,22.50
2023-04-28T07:46:05.996Z,22.50
2023-04-28T07:47:05.956Z,22.50
2023-04-28T07:48:05.981Z,22.50
2023-04-28T07:49:05.933Z,22.50
2023-04-28T07:50:05.941Z,22.50
2023-04-28T07:51:05.897Z,28.12
2023-04-28T07:52:05.894Z,28.12
2023-04-28T07:53:05.936Z,22.50
2023-04-28T07:54:05.890Z,22.50
2023-04-28T07:55:05.882Z,16.88
2023-04-28T07:56:05.894Z,22.50
2023-04-28T07:57:05.846Z,22.50
2023-04-28T07:58:05.905Z,16.88
2023-04-28T07:59:05.861Z,16.88
2023-04-28T08:00:05.899Z,16.88
2023-04-28T08:01:05.824Z,16.88
2023-04-28T08:02:05.856Z,11.25
2023-04-28T08:03:05.986Z,11.25
2023-04-28T08:04:05.982Z,11.25
2023-04-28T08:05:05.902Z,16.88
2023-04-28T08:06:05.900Z,16.88
2023-04-28T08:07:05.752Z,16.88
2023-04-28T08:08:05.751Z,16.88
2023-04-28T08:09:05.728Z,22.50
2023-04-28T08:10:05.728Z,22.50
2023-04-28T08:11:05.750Z,22.50
2023-04-28T08:12:05.685Z,22.50
2023-04-28T08:13:05.696Z,22.50
2023-04-28T08:14:05.806Z,22.50
2023-04-28T08:15:05.754Z,22.50
2023-04-28T08:16:05.691Z,22.50
2023-04-28T08:17:05.630Z,22.50
2023-04-28T08:18:05.762Z,22.50
2023-04-28T08:19:05.753Z,22.50
2023-04-28T08:20:05.639Z,28.12
2023-04-28T08:21:05.619Z,28.12
2023-04-28T08:22:05.574Z,28.12
2023-04-28T08:23:05.585Z,28.12
2023-04-28T08:24:05.565Z,28.12
2023-04-28T08:25:05.567Z,22.50
2023-04-28T08:26:05.558Z,28.12
2023-04-28T08:27:05.561Z,28.12
2023-04-28T08:28:05.541Z,28.12
2023-04-28T08:29:05.574Z,28.12
2023-04-28T08:30:05.546Z,28.12
2023-04-28T08:31:05.594Z,33.75
2023-04-28T08:32:05.487Z,33.75
2023-04-28T08:33:07.299Z,39.38
2023-04-28T08:34:05.457Z,39.38
2023-04-28T08:35:05.524Z,50.62
2023-04-28T08:36:05.440Z,50.62
2023-04-28T08:37:05.422Z,50.62
2023-04-28T08:38:05.428Z,45.00
2023-04-28T08:39:05.409Z,45.00
2023-04-28T08:40:05.416Z,39.38
2023-04-28T08:41:05.379Z,39.38
2023-04-28T08:42:05.381Z,39.38
2023-04-28T08:43:05.375Z,45.00
2023-04-28T08:44:05.360Z,45.00
2023-04-28T08:45:05.362Z,50.62
2023-04-28T08:46:05.413Z,56.25
2023-04-28T08:47:05.417Z,56.25
2023-04-28T08:48:05.365Z,61.88
2023-04-28T08:49:05.297Z,61.88
2023-04-28T08:50:05.305Z,61.88
2023-04-28T08:51:05.266Z,61.88
2023-04-28T08:52:05.281Z,56.25
2023-04-28T08:53:05.260Z,50.62
2023-04-28T08:54:22.855Z,50.62
2023-04-28T08:55:05.269Z,45.00
2023-04-28T08:56:05.230Z,45.00
2023-04-28T08:57:05.213Z,50.62
2023-04-28T08:58:05.215Z,56.25
2023-04-28T08:59:05.221Z,56.25
2023-04-28T09:00:05.306Z,56.25
2023-04-28T09:01:05.234Z,56.25
2023-04-28T09:02:05.292Z,50.62
2023-04-28T09:03:05.217Z,45.00
2023-04-28T09:04:05.287Z,45.00
2023-04-28T09:05:05.432Z,39.38
2023-04-28T09:06:05.159Z,33.75
2023-04-28T09:07:05.193Z,39.38
2023-04-28T09:08:05.130Z,39.38
2023-04-28T09:09:05.144Z,39.38
2023-04-28T09:10:05.084Z,39.38
2023-04-28T09:11:05.100Z,33.75
2023-04-28T09:12:05.276Z,33.75
2023-04-28T09:13:05.047Z,33.75
2023-04-28T09:14:05.066Z,33.75
2023-04-28T09:15:05.046Z,39.38
2023-04-28T09:16:05.112Z,39.38
2023-04-28T09:17:04.997Z,39.38
2023-04-28T09:18:05.044Z,39.38
2023-04-28T09:19:05.027Z,45.00
2023-04-28T09:20:05.090Z,45.00
2023-04-28T09:21:04.988Z,45.00
2023-04-28T09:22:17.704Z,39.38
2023-04-28T09:23:04.983Z,45.00
2023-04-28T09:24:04.937Z,45.00
2023-04-28T09:25:04.937Z,45.00
2023-04-28T09:26:04.922Z,50.62
2023-04-28T09:27:04.906Z,61.88
2023-04-28T09:28:04.904Z,67.50
2023-04-28T09:29:04.877Z,67.50
2023-04-28T09:30:04.897Z,78.75
2023-04-28T09:31:04.865Z,67.50
2023-04-28T09:32:04.909Z,67.50
2023-04-28T09:33:04.950Z,73.12
2023-04-28T09:34:04.848Z,73.12
2023-04-28T09:35:04.868Z,73.12
2023-04-28T09:36:04.821Z,73.12
2023-04-28T09:37:04.851Z,73.12
2023-04-28T09:38:04.810Z,73.12
2023-04-28T09:39:04.797Z,73.12
2023-04-28T09:40:04.802Z,84.38
2023-04-28T09:41:04.780Z,106.88
2023-04-28T09:42:04.782Z,123.75
2023-04-28T09:43:15.318Z,146.25
2023-04-28T09:44:04.754Z,151.88
2023-04-28T09:45:04.766Z,129.38
2023-04-28T09:46:04.828Z,123.75
2023-04-28T09:47:04.709Z,123.75
2023-04-28T09:48:04.747Z,135.00
2023-04-28T09:49:04.688Z,135.00
2023-04-28T09:50:04.699Z,129.38
2023-04-28T09:51:04.664Z,129.38
2023-04-28T09:52:04.647Z,140.62
2023-04-28T09:53:04.634Z,157.50
2023-04-28T09:54:04.626Z,163.12
2023-04-28T09:55:04.681Z,163.12
2023-04-28T09:56:04.604Z,163.12
2023-04-28T09:57:04.921Z,174.38
2023-04-28T09:58:04.594Z,168.75
2023-04-28T09:59:04.582Z,163.12
2023-04-28T10:00:04.592Z,157.50
2023-04-28T10:01:04.635Z,163.12
2023-04-28T10:02:12.884Z,140.62
2023-04-28T10:03:04.623Z,140.62
2023-04-28T10:04:04.734Z,135.00
2023-04-28T10:05:04.908Z,129.38
2023-04-28T10:06:04.500Z,123.75
2023-04-28T10:07:04.502Z,118.12
2023-04-28T10:08:04.503Z,112.50
2023-04-28T10:09:04.490Z,112.50
2023-04-28T10:10:04.529Z,118.12
2023-04-28T10:11:04.476Z,112.50
2023-04-28T10:12:04.452Z,106.88
2023-04-28T10:13:04.424Z,95.62
2023-04-28T10:14:04.433Z,90.00
2023-04-28T10:15:04.443Z,84.38
2023-04-28T10:16:04.439Z,84.38
2023-04-28T10:17:04.414Z,78.75
2023-04-28T10:18:04.486Z,90.00
2023-04-28T10:19:04.399Z,101.25
2023-04-28T10:20:04.408Z,95.62
2023-04-28T10:21:04.384Z,90.00
2023-04-28T10:22:04.384Z,78.75
2023-04-28T10:23:04.328Z,78.75
2023-04-28T10:24:04.322Z,84.38
2023-04-28T10:25:04.338Z,90.00
2023-04-28T10:26:04.308Z,95.62
2023-04-28T10:27:04.306Z,112.50
2023-04-28T10:28:04.272Z,118.12
2023-04-28T10:29:04.281Z,118.12
2023-04-28T10:30:08.321Z,135.00
2023-04-28T10:31:04.278Z,140.62
2023-04-28T10:32:04.242Z,157.50
2023-04-28T10:33:04.329Z,163.12
2023-04-28T10:34:04.840Z,157.50
2023-04-28T10:35:04.246Z,151.88
2023-04-28T10:36:04.218Z,140.62
2023-04-28T10:37:04.188Z,140.62
2023-04-28T10:38:04.185Z,140.62
2023-04-28T10:39:04.176Z,140.62
2023-04-28T10:40:04.611Z,151.88
2023-04-28T10:41:04.178Z,140.62
2023-04-28T10:42:04.134Z,135.00
2023-04-28T10:43:04.156Z,129.38
2023-04-28T10:44:04.122Z,135.00
2023-04-28T10:45:04.121Z,135.00
2023-04-28T10:46:04.200Z,135.00
2023-04-28T10:47:04.092Z,140.62
2023-04-28T10:48:04.156Z,135.00
2023-04-28T10:49:04.081Z,140.62
2023-04-28T10:50:04.067Z,151.88
2023-04-28T10:51:04.192Z,151.88
2023-04-28T10:52:04.059Z,146.25
2023-04-28T10:53:04.027Z,140.62
2023-04-28T10:54:04.004Z,146.25
2023-04-28T10:55:15.769Z,146.25
2023-04-28T10:56:04.044Z,135.00
2023-04-28T10:57:03.991Z,123.75
2023-04-28T10:58:04.003Z,118.12
2023-04-28T10:59:03.976Z,123.75
2023-04-28T11:00:03.966Z,129.38
2023-04-28T11:01:03.955Z,123.75
2023-04-28T11:02:04.020Z,112.50
2023-04-28T11:03:04.018Z,106.88
2023-04-28T11:04:04.680Z,101.25
2023-04-28T11:05:04.000Z,101.25
2023-04-28T11:06:03.897Z,95.62
2023-04-28T11:07:03.907Z,95.62
2023-04-28T11:08:03.870Z,95.62
2023-04-28T11:09:03.871Z,101.25
2023-04-28T11:10:03.872Z,101.25
2023-04-28T11:11:03.865Z,101.25
2023-04-28T11:12:03.835Z,106.88
2023-04-28T11:13:03.824Z,101.25
2023-04-28T11:14:03.810Z,90.00
2023-04-28T11:15:03.833Z,84.38
2023-04-28T11:16:03.862Z,78.75
2023-04-28T11:17:03.799Z,78.75
2023-04-28T11:18:03.803Z,84.38
2023-04-28T11:19:03.788Z,95.62
2023-04-28T11:20:03.765Z,101.25
2023-04-28T11:21:03.751Z,106.88
2023-04-28T11:22:03.718Z,101.25
2023-04-28T11:23:03.708Z,112.50
2023-04-28T11:24:03.718Z,118.12
2023-04-28T11:25:03.722Z,118.12
2023-04-28T11:26:03.670Z,118.12
2023-04-28T11:27:03.662Z,123.75
2023-04-28T11:28:03.667Z,129.38
2023-04-28T11:29:03.652Z,129.38
2023-04-28T11:30:03.643Z,129.38
2023-04-28T11:31:03.629Z,129.38
2023-04-28T11:32:03.965Z,135.00
2023-04-28T11:33:03.678Z,140.62
2023-04-28T11:34:03.644Z,140.62
2023-04-28T11:35:03.658Z,135.00
2023-04-28T11:36:03.588Z,135.00
2023-04-28T11:37:03.605Z,135.00
2023-04-28T11:38:03.610Z,129.38
2023-04-28T11:39:03.634Z,118.12
2023-04-28T11:40:03.543Z,112.50
2023-04-28T11:41:03.528Z,84.38
2023-04-28T11:42:03.494Z,78.75
2023-04-28T11:43:03.507Z,73.12
2023-04-28T11:44:03.498Z,73.12
2023-04-28T11:45:03.557Z,84.38
2023-04-28T11:46:03.514Z,90.00
2023-04-28T11:47:03.971Z,95.62
2023-04-28T11:48:03.480Z,95.62
2023-04-28T11:49:03.456Z,90.00
2023-04-28T11:50:03.616Z,90.00
2023-04-28T11:51:03.410Z,78.75
2023-04-28T11:52:03.428Z,61.88
2023-04-28T11:53:03.402Z,56.25
2023-04-28T11:54:03.413Z,50.62
2023-04-28T11:55:03.435Z,50.62
2023-04-28T11:56:03.376Z,50.62
2023-04-28T11:57:03.370Z,50.62
2023-04-28T11:58:03.396Z,50.62
2023-04-28T11:59:03.879Z,50.62
2023-04-28T12:00:03.346Z,56.25
2023-04-28T12:01:03.354Z,61.88
2023-04-28T12:02:03.456Z,56.25
2023-04-28T12:03:03.402Z,50.62
2023-04-28T12:04:03.421Z,56.25
2023-04-28T12:05:03.374Z,56.25
2023-04-28T12:06:03.376Z,56.25
2023-04-28T12:07:03.269Z,50.62
2023-04-28T12:08:03.255Z,45.00
2023-04-28T12:09:03.252Z,56.25
2023-04-28T12:10:03.281Z,61.88
2023-04-28T12:11:03.258Z,67.50
2023-04-28T12:12:03.506Z,67.50
2023-04-28T12:13:03.215Z,67.50
2023-04-28T12:14:03.193Z,61.88
2023-04-28T12:15:03.189Z,67.50
2023-04-28T12:16:03.191Z,73.12
2023-04-28T12:17:03.162Z,84.38
2023-04-28T12:18:03.210Z,90.00
2023-04-28T12:19:03.136Z,95.62
2023-04-28T12:20:03.148Z,106.88
2023-04-28T12:21:03.225Z,112.50
2023-04-28T12:22:03.095Z,118.12
2023-04-28T12:23:03.150Z,112.50
2023-04-28T12:24:03.072Z,112.50
2023-04-28T12:25:03.183Z,118.12
2023-04-28T12:26:03.057Z,123.75
2023-04-28T12:27:03.053Z,118.12
2023-04-28T12:28:03.173Z,112.50
2023-04-28T12:29:03.041Z,112.50
2023-04-28T12:30:03.063Z,118.12
2023-04-28T12:31:03.084Z,118.12
2023-04-28T12:32:03.009Z,118.12
2023-04-28T12:33:03.027Z,106.88
2023-04-28T12:34:03.055Z,101.25
2023-04-28T12:35:02.998Z,101.25
2023-04-28T12:36:02.965Z,95.62
2023-04-28T12:37:02.952Z,95.62
2023-04-28T12:38:02.950Z,90.00
2023-04-28T12:39:02.934Z,84.38
2023-04-28T12:40:02.940Z,84.38
2023-04-28T12:41:02.929Z,84.38
2023-04-28T12:42:02.908Z,84.38
2023-04-28T12:43:02.897Z,84.38
2023-04-28T12:44:02.897Z,84.38
2023-04-28T12:45:02.880Z,78.75
2023-04-28T12:46:02.865Z,84.38
2023-04-28T12:47:02.856Z,84.38
2023-04-28T12:48:02.894Z,84.38
2023-04-28T12:49:02.835Z,84.38
2023-04-28T12:50:02.834Z,78.75
2023-04-28T12:51:02.811Z,78.75
2023-04-28T12:52:02.806Z,73.12
2023-04-28T12:53:02.838Z,73.12
2023-04-28T12:54:02.785Z,73.12
2023-04-28T12:55:02.776Z,73.12
2023-04-28T12:56:02.743Z,61.88
2023-04-28T12:57:02.751Z,56.25
2023-04-28T12:58:02.725Z,50.62
2023-04-28T12:59:02.732Z,56.25
2023-04-28T13:00:08.829Z,61.88